Time;durP1;ratioP1;P1;durP2;ratioP2;P2;SDS_P1;SDS_P2;PMS_P1;PMS_P2;Temp;Humidity;BMP_temperature;BMP_pressure;BME280_temperature;BME280_humidity;BME280_pressure;Samples;Min_cycle;Max_cycle;Signal;HPM_P1;HPM_P2
2022/09/15 00:02:14;;;;;;;9.45;2.00;;;14.70;99.90;;;;;;4916229;29;20061;-84
2022/09/15 00:04:40;;;;;;;9.05;2.22;;;14.70;99.90;;;;;;4931899;29;20070;-84
2022/09/15 00:07:06;;;;;;;10.90;2.15;;;14.70;99.90;;;;;;4932985;29;20047;-84
2022/09/15 00:09:31;;;;;;;9.23;2.00;;;14.70;99.90;;;;;;4930664;29;20521;-85
2022/09/15 00:11:57;;;;;;;6.20;1.83;;;14.80;99.90;;;;;;4916052;29;20043;-84
2022/09/15 00:14:23;;;;;;;11.40;1.85;;;14.80;99.90;;;;;;4932729;29;20047;-84
2022/09/15 00:16:49;;;;;;;6.60;1.60;;;14.80;99.90;;;;;;4931641;29;20494;-84
2022/09/15 00:19:15;;;;;;;5.65;1.35;;;14.80;99.90;;;;;;4932364;29;20074;-85
2022/09/15 00:21:41;;;;;;;11.52;1.88;;;14.80;99.90;;;;;;4932609;29;20039;-84
2022/09/15 00:24:08;;;;;;;8.57;2.08;;;14.80;99.90;;;;;;4930570;29;20053;-85
2022/09/15 00:26:34;;;;;;;8.30;2.00;;;14.80;99.90;;;;;;4932781;29;20051;-84
2022/09/15 00:29:02;;;;;;;10.18;1.80;;;14.70;99.90;;;;;;4931319;29;20055;-85
2022/09/15 00:31:29;;;;;;;9.13;2.42;;;14.70;99.90;;;;;;4932340;29;20290;-84
2022/09/15 00:33:58;;;;;;;7.13;1.85;;;14.70;99.90;;;;;;4931762;29;20147;-85
2022/09/15 00:36:25;;;;;;;9.70;2.08;;;14.70;99.90;;;;;;4931840;29;20047;-84
2022/09/15 00:38:51;;;;;;;10.20;2.10;;;14.70;99.90;;;;;;4915673;29;20106;-84
2022/09/15 00:41:19;;;;;;;11.50;2.70;;;14.70;99.90;;;;;;4932360;29;20047;-83
2022/09/15 00:43:56;;;;;;;9.35;1.60;;;14.70;99.90;;;;;;4931666;29;20039;-84
2022/09/15 00:46:24;;;;;;;7.22;1.92;;;14.70;99.90;;;;;;4932174;29;20530;-84
2022/09/15 00:48:56;;;;;;;13.23;2.92;;;14.70;99.90;;;;;;4915824;29;20035;-84
2022/09/15 00:51:38;;;;;;;10.75;1.90;;;14.70;99.90;;;;;;4931580;29;20055;-84
2022/09/15 00:54:11;;;;;;;9.02;1.67;;;14.70;99.90;;;;;;4931724;29;20039;-84
2022/09/15 00:56:38;;;;;;;6.70;1.52;;;14.70;99.90;;;;;;4932507;29;20078;-84
2022/09/15 00:59:09;;;;;;;7.65;1.92;;;14.70;99.90;;;;;;4931424;29;20047;-84
2022/09/15 01:01:34;;;;;;;7.93;1.40;;;14.70;99.90;;;;;;4932274;29;20047;-84
2022/09/15 01:04:00;;;;;;;8.73;1.40;;;14.70;99.90;;;;;;4931870;29;20053;-84
2022/09/15 01:06:33;;;;;;;10.18;1.40;;;14.70;99.90;;;;;;4931211;29;20079;-84
2022/09/15 01:09:11;;;;;;;9.80;1.40;;;14.70;99.90;;;;;;4931591;29;20066;-84
2022/09/15 01:11:37;;;;;;;8.98;1.17;;;14.70;99.90;;;;;;4931721;29;20082;-85
2022/09/15 01:14:03;;;;;;;7.13;1.15;;;14.80;99.90;;;;;;4931307;29;20054;-84
2022/09/15 01:16:46;;;;;;;6.95;1.42;;;14.80;99.90;;;;;;4932297;29;20047;-83
2022/09/15 01:19:46;;;;;;;9.45;1.27;;;14.80;99.90;;;;;;4931044;29;20043;-84
2022/09/15 01:22:21;;;;;;;6.32;0.90;;;14.80;99.90;;;;;;4934636;29;20055;-85
2022/09/15 01:25:05;;;;;;;11.77;1.35;;;14.80;99.90;;;;;;4918818;29;20055;-85
2022/09/15 01:27:35;;;;;;;8.20;1.33;;;14.80;99.90;;;;;;4919162;29;20111;-84
2022/09/15 01:30:06;;;;;;;12.65;0.98;;;14.80;99.90;;;;;;4919449;29;20075;-85
2022/09/15 01:33:04;;;;;;;14.15;1.35;;;14.80;99.90;;;;;;4918714;29;20106;-84
2022/09/15 01:35:36;;;;;;;9.40;1.40;;;14.80;99.90;;;;;;4935372;29;20566;-84
2022/09/15 01:38:06;;;;;;;11.63;1.13;;;14.80;99.90;;;;;;4935299;29;20051;-85
2022/09/15 01:40:38;;;;;;;9.20;1.25;;;14.80;99.90;;;;;;4918594;29;20105;-85
2022/09/15 01:43:07;;;;;;;8.65;1.42;;;14.90;99.90;;;;;;4935283;29;20126;-85
2022/09/15 01:45:34;;;;;;;7.03;1.20;;;14.90;99.90;;;;;;4919259;29;20145;-84
2022/09/15 01:48:02;;;;;;;8.00;1.60;;;14.80;99.90;;;;;;4934552;29;20039;-85
2022/09/15 01:50:35;;;;;;;12.15;1.80;;;14.80;99.90;;;;;;4934482;29;20551;-85
2022/09/15 01:53:04;;;;;;;9.70;1.17;;;14.80;99.90;;;;;;4935065;29;20049;-85
2022/09/15 01:55:39;;;;;;;8.90;0.90;;;14.80;99.90;;;;;;4933626;29;20479;-86
2022/09/15 01:58:06;;;;;;;15.25;1.42;;;14.80;99.90;;;;;;4935195;29;20078;-84
2022/09/15 02:00:37;;;;;;;12.80;1.58;;;14.80;99.90;;;;;;4934179;29;20485;-85
2022/09/15 02:03:16;;;;;;;10.93;1.23;;;14.80;99.90;;;;;;4934978;29;20038;-84
2022/09/15 02:05:57;;;;;;;7.93;1.15;;;14.90;99.90;;;;;;4934900;29;20047;-85
2022/09/15 02:08:29;;;;;;;10.23;1.17;;;14.80;99.90;;;;;;4933313;29;20043;-84
2022/09/15 02:10:59;;;;;;;7.55;1.30;;;14.90;99.90;;;;;;4935341;29;20190;-84
2022/09/15 02:13:38;;;;;;;7.63;1.15;;;14.80;99.90;;;;;;4918136;29;20066;-84
2022/09/15 02:16:14;;;;;;;10.38;1.60;;;14.60;99.90;;;;;;4934249;29;20054;-84
2022/09/15 02:18:51;;;;;;;9.40;1.25;;;14.50;99.90;;;;;;4950621;29;20066;-83
2022/09/15 02:21:23;;;;;;;12.43;1.45;;;14.30;99.90;;;;;;4918661;29;20047;-84
2022/09/15 02:23:53;;;;;;;11.75;1.92;;;14.30;99.90;;;;;;4932608;29;20051;-83
2022/09/15 02:26:24;;;;;;;21.83;1.17;;;14.20;99.90;;;;;;4934132;29;20494;-84
2022/09/15 02:28:51;;;;;;;10.98;1.27;;;14.10;99.90;;;;;;4933157;29;20526;-83
2022/09/15 02:31:20;;;;;;;11.80;1.17;;;14.10;99.90;;;;;;4933855;28;20702;-83
2022/09/15 02:33:54;;;;;;;9.57;1.13;;;14.00;99.90;;;;;;4933418;29;20399;-83
2022/09/15 02:36:21;;;;;;;9.40;1.05;;;14.00;99.90;;;;;;4933570;29;20054;-83
2022/09/15 02:38:53;;;;;;;9.07;1.35;;;14.00;99.90;;;;;;4933146;29;20043;-85
2022/09/15 02:41:19;;;;;;;7.50;0.88;;;14.00;99.90;;;;;;4934508;29;20043;-85
2022/09/15 02:43:48;;;;;;;12.30;1.40;;;13.90;99.90;;;;;;4917854;29;20054;-86
2022/09/15 02:46:17;;;;;;;8.85;1.50;;;13.80;99.90;;;;;;4934711;29;20047;-86
2022/09/15 02:49:25;;;;;;;9.45;1.27;;;13.70;99.90;;;;;;4934509;29;20039;-86
2022/09/15 02:51:51;;;;;;;8.77;1.70;;;13.70;99.90;;;;;;4898331;29;20511;-86
2022/09/15 02:54:17;;;;;;;8.95;1.10;;;13.60;99.90;;;;;;4933326;29;20058;-84
2022/09/15 02:56:42;;;;;;;7.65;1.02;;;13.60;99.90;;;;;;4933654;29;20051;-85
2022/09/15 02:59:08;;;;;;;7.28;0.95;;;13.60;99.90;;;;;;4933782;29;20071;-86
2022/09/15 03:01:34;;;;;;;12.27;1.70;;;13.60;99.90;;;;;;4934315;29;20114;-85
2022/09/15 03:04:01;;;;;;;11.77;1.60;;;13.60;99.90;;;;;;4917219;29;20039;-85
2022/09/15 03:06:29;;;;;;;9.82;1.10;;;13.60;99.90;;;;;;4934211;29;20047;-85
2022/09/15 03:08:57;;;;;;;9.98;1.15;;;13.60;99.90;;;;;;4916930;29;20043;-86
2022/09/15 03:11:26;;;;;;;9.38;1.40;;;13.70;99.90;;;;;;4933518;29;20058;-85
2022/09/15 03:13:54;;;;;;;9.45;1.40;;;13.70;99.90;;;;;;4933386;29;20051;-85
2022/09/15 03:16:20;;;;;;;8.95;1.48;;;13.70;99.90;;;;;;4918159;29;20046;-86
2022/09/15 03:18:47;;;;;;;20.05;1.85;;;13.70;99.90;;;;;;4932606;29;20155;-85
2022/09/15 03:21:14;;;;;;;8.90;1.38;;;13.70;99.90;;;;;;4932576;29;20055;-85
2022/09/15 03:23:41;;;;;;;11.38;1.20;;;13.70;99.90;;;;;;4913606;29;20054;-85
2022/09/15 03:26:08;;;;;;;14.60;1.38;;;13.70;99.90;;;;;;4913942;29;20051;-84
2022/09/15 03:28:35;;;;;;;10.80;1.40;;;13.70;99.90;;;;;;4914544;29;20059;-85
2022/09/15 03:31:01;;;;;;;10.60;1.13;;;13.70;99.90;;;;;;4914267;29;20043;-85
2022/09/15 03:33:28;;;;;;;8.07;1.10;;;13.80;99.90;;;;;;4913377;29;20054;-84
2022/09/15 03:35:54;;;;;;;9.25;1.27;;;13.80;99.90;;;;;;4913825;29;20460;-84
2022/09/15 03:38:22;;;;;;;9.57;1.05;;;13.80;99.90;;;;;;4913251;29;20135;-84
2022/09/15 03:40:58;;;;;;;7.82;1.25;;;13.80;99.90;;;;;;4913280;29;20047;-83
2022/09/15 03:43:24;;;;;;;14.85;1.52;;;13.80;99.90;;;;;;4913235;29;20622;-83
2022/09/15 03:45:50;;;;;;;13.48;1.63;;;13.90;99.90;;;;;;4912721;29;20036;-83
2022/09/15 03:48:16;;;;;;;9.05;1.00;;;13.80;99.90;;;;;;4913704;29;20056;-84
2022/09/15 03:50:42;;;;;;;10.10;1.38;;;13.80;99.90;;;;;;4913508;29;20063;-83
2022/09/15 03:53:07;;;;;;;10.10;1.38;;;13.80;99.90;;;;;;4912553;29;20499;-84
2022/09/15 03:55:33;;;;;;;10.25;1.77;;;13.90;99.90;;;;;;4924753;29;20075;-85
2022/09/15 03:57:59;;;;;;;8.95;1.35;;;13.90;99.90;;;;;;4894768;29;20411;-83
2022/09/15 04:00:24;;;;;;;10.35;2.33;;;13.90;99.90;;;;;;4893977;29;20717;-83
2022/09/15 04:02:50;;;;;;;11.82;1.30;;;13.90;99.90;;;;;;4910071;29;20048;-84
2022/09/15 04:05:16;;;;;;;11.15;1.40;;;13.90;99.90;;;;;;4894746;29;20044;-84
2022/09/15 04:07:42;;;;;;;16.67;1.85;;;14.00;99.90;;;;;;4909816;29;20507;-84
2022/09/15 04:10:08;;;;;;;7.30;1.50;;;13.90;99.90;;;;;;4893407;29;20040;-84
2022/09/15 04:12:35;;;;;;;11.20;1.58;;;14.00;99.90;;;;;;4910809;29;20052;-84
2022/09/15 04:15:02;;;;;;;5.68;1.05;;;14.00;99.90;;;;;;4909651;29;20044;-83
2022/09/15 04:17:27;;;;;;;14.10;1.67;;;13.90;99.90;;;;;;4910789;29;20052;-84
2022/09/15 04:19:53;;;;;;;8.77;1.25;;;13.90;99.90;;;;;;4907458;29;20070;-85
2022/09/15 04:22:19;;;;;;;13.32;1.77;;;13.90;99.90;;;;;;4913606;29;20090;-85
2022/09/15 04:24:47;;;;;;;13.55;1.70;;;13.90;99.90;;;;;;4897343;29;20054;-85
2022/09/15 04:27:14;;;;;;;15.30;1.60;;;13.90;99.90;;;;;;4911564;29;20043;-85
2022/09/15 04:29:40;;;;;;;15.38;1.52;;;14.00;99.90;;;;;;4912958;29;20040;-84
2022/09/15 04:32:07;;;;;;;13.43;1.95;;;14.00;99.90;;;;;;4913028;29;20119;-84
2022/09/15 04:34:33;;;;;;;8.98;1.13;;;13.90;99.90;;;;;;4913917;29;20040;-84
2022/09/15 04:36:59;;;;;;;10.55;1.42;;;13.90;99.90;;;;;;4912487;29;20520;-84
2022/09/15 04:39:24;;;;;;;11.02;1.55;;;13.90;99.90;;;;;;4912368;29;20047;-84
2022/09/15 04:41:50;;;;;;;14.55;1.60;;;13.90;99.90;;;;;;4929503;29;20480;-85
2022/09/15 04:44:16;;;;;;;11.25;1.95;;;13.80;99.90;;;;;;4912523;29;20124;-85
2022/09/15 04:46:43;;;;;;;12.68;1.10;;;13.80;99.90;;;;;;4929255;29;20457;-85
2022/09/15 04:49:08;;;;;;;13.98;1.45;;;13.80;99.90;;;;;;4912349;29;20139;-84
2022/09/15 04:51:34;;;;;;;9.73;1.30;;;13.50;99.90;;;;;;4928966;29;20126;-84
2022/09/15 04:54:00;;;;;;;12.48;1.45;;;13.70;99.90;;;;;;4928505;29;20052;-84
2022/09/15 04:56:26;;;;;;;15.43;2.45;;;13.70;99.90;;;;;;4931409;29;20369;-84
2022/09/15 04:58:56;;;;;;;13.80;1.50;;;13.60;99.90;;;;;;4912254;29;20059;-84
2022/09/15 05:01:24;;;;;;;15.85;1.60;;;13.70;99.90;;;;;;4919582;29;20091;-85
2022/09/15 05:03:50;;;;;;;8.45;1.15;;;13.70;99.90;;;;;;4934652;29;20047;-84
2022/09/15 05:06:19;;;;;;;8.77;1.15;;;13.70;99.90;;;;;;4936022;29;20079;-84
2022/09/15 05:08:48;;;;;;;20.02;1.85;;;13.60;99.90;;;;;;4918985;29;20055;-84
2022/09/15 05:11:14;;;;;;;11.30;1.17;;;13.60;99.90;;;;;;4919021;29;20352;-85
2022/09/15 05:13:40;;;;;;;7.05;1.30;;;13.60;99.90;;;;;;4919509;29;20047;-84
2022/09/15 05:16:14;;;;;;;8.63;1.48;;;13.50;99.90;;;;;;4934060;29;20044;-84
2022/09/15 05:18:40;;;;;;;;;;;13.40;99.90;;;;;;4935244;29;20063;-84
2022/09/15 05:21:07;;;;;;;9.93;1.33;;;13.30;99.90;;;;;;4920075;29;19969;-84
2022/09/15 05:23:34;;;;;;;6.93;1.17;;;13.30;99.90;;;;;;4919071;29;20507;-84
2022/09/15 05:26:02;;;;;;;11.95;1.33;;;13.30;99.90;;;;;;4919357;29;20146;-85
2022/09/15 05:28:28;;;;;;;10.75;1.10;;;13.20;99.90;;;;;;4919474;29;20505;-84
2022/09/15 05:30:54;;;;;;;5.38;0.90;;;13.10;99.90;;;;;;4920066;29;20043;-85
2022/09/15 05:33:22;;;;;;;7.43;1.20;;;13.00;99.90;;;;;;4918337;29;20581;-85
2022/09/15 05:35:56;;;;;;;9.57;1.48;;;12.90;99.90;;;;;;4920181;29;20138;-87
2022/09/15 05:38:23;;;;;;;10.30;1.23;;;12.90;99.90;;;;;;4933329;29;20051;-84
2022/09/15 05:40:49;;;;;;;8.40;1.20;;;12.90;99.90;;;;;;4934152;29;20043;-84
2022/09/15 05:43:15;;;;;;;8.07;1.10;;;12.90;99.90;;;;;;4918723;29;20065;-83
2022/09/15 05:45:41;;;;;;;10.27;1.20;;;13.00;99.90;;;;;;4918345;29;20043;-83
2022/09/15 05:48:08;;;;;;;12.75;1.63;;;13.10;99.90;;;;;;4935099;29;20048;-83
2022/09/15 05:50:34;;;;;;;6.55;0.95;;;13.20;99.90;;;;;;4919292;29;20049;-84
2022/09/15 05:53:00;;;;;;;14.43;1.70;;;13.30;99.90;;;;;;4918417;29;20390;-83
2022/09/15 05:55:25;;;;;;;7.90;1.35;;;13.40;99.90;;;;;;4914476;29;20354;-84
2022/09/15 05:57:52;;;;;;;11.10;1.02;;;13.50;99.90;;;;;;4915999;29;20059;-85
2022/09/15 06:00:18;;;;;;;12.60;1.33;;;13.60;99.90;;;;;;4899196;29;20068;-84
2022/09/15 06:02:44;;;;;;;8.63;1.75;;;13.70;99.90;;;;;;4900263;29;20062;-84
2022/09/15 06:05:10;;;;;;;9.18;1.33;;;13.80;99.90;;;;;;4915734;29;20480;-84
2022/09/15 06:07:36;;;;;;;15.05;2.33;;;14.00;99.90;;;;;;4898974;29;20055;-84
2022/09/15 06:10:03;;;;;;;10.43;1.17;;;14.00;99.90;;;;;;4899287;29;20507;-84
2022/09/15 06:12:29;;;;;;;9.23;2.03;;;14.10;99.90;;;;;;4900366;29;20095;-84
2022/09/15 06:14:55;;;;;;;7.93;1.10;;;14.10;99.90;;;;;;4899428;29;20102;-84
2022/09/15 06:17:22;;;;;;;8.50;1.13;;;14.20;99.90;;;;;;4916280;29;20053;-84
2022/09/15 06:19:48;;;;;;;9.10;1.20;;;14.30;99.90;;;;;;4899768;29;20044;-84
2022/09/15 06:22:14;;;;;;;8.63;1.30;;;14.30;99.90;;;;;;4915262;29;20047;-84
2022/09/15 06:24:39;;;;;;;8.15;1.05;;;14.40;99.90;;;;;;4914430;29;20047;-85
2022/09/15 06:27:06;;;;;;;7.55;1.20;;;14.50;99.90;;;;;;4916205;29;20091;-85
2022/09/15 06:29:32;;;;;;;8.00;1.63;;;14.50;99.90;;;;;;4899706;29;20059;-84
2022/09/15 06:32:01;;;;;;;9.15;1.60;;;14.60;99.90;;;;;;4899457;29;20043;-85
2022/09/15 06:34:28;;;;;;;9.23;1.02;;;14.60;99.90;;;;;;4915182;29;20392;-84
2022/09/15 06:36:54;;;;;;;9.18;1.10;;;14.70;99.90;;;;;;4913945;29;20064;-84
2022/09/15 06:39:20;;;;;;;10.35;1.75;;;14.70;99.90;;;;;;4914755;29;20051;-84
2022/09/15 06:41:46;;;;;;;9.63;1.05;;;14.80;99.90;;;;;;4914192;29;20144;-83
2022/09/15 06:44:12;;;;;;;9.77;1.40;;;14.80;99.90;;;;;;4914847;29;20446;-83
2022/09/15 06:49:46;;;;;;;6.38;1.02;;;14.90;99.90;;;;;;5066968;23;20055;-93
2022/09/15 06:52:12;;;;;;;5.28;0.80;;;14.90;99.90;;;;;;4920559;29;20044;-93
2022/09/15 06:54:37;;;;;;;11.38;1.00;;;14.90;99.90;;;;;;4923123;29;20443;-93
2022/09/15 06:57:03;;;;;;;10.00;1.10;;;14.80;99.90;;;;;;4920948;29;20055;-93
2022/09/15 06:59:34;;;;;;;7.07;1.30;;;14.80;99.90;;;;;;4921877;29;20202;-92
2022/09/15 07:01:59;;;;;;;7.82;1.00;;;14.90;99.90;;;;;;4921342;29;20499;-92
2022/09/15 07:04:27;;;;;;;8.73;0.88;;;14.80;99.90;;;;;;4921592;29;20044;-94
2022/09/15 07:06:53;;;;;;;7.53;0.95;;;14.80;99.90;;;;;;4921727;29;20138;-90
2022/09/15 07:09:19;;;;;;;5.68;0.70;;;14.80;99.90;;;;;;4907201;29;20071;-90
2022/09/15 07:11:45;;;;;;;6.78;0.82;;;14.90;99.90;;;;;;4906036;29;20059;-91
2022/09/15 07:14:11;;;;;;;7.85;0.90;;;14.90;99.90;;;;;;4905544;29;20056;-91
2022/09/15 07:16:37;;;;;;;7.03;0.82;;;15.00;99.90;;;;;;4904402;29;20062;-92
2022/09/15 07:19:04;;;;;;;5.80;0.70;;;15.10;99.90;;;;;;4920640;29;20043;-91
2022/09/15 07:21:30;;;;;;;11.32;0.75;;;15.30;99.90;;;;;;4920710;29;20081;-91
2022/09/15 07:23:57;;;;;;;7.35;0.95;;;15.50;99.90;;;;;;4920462;29;20634;-91
2022/09/15 07:26:26;;;;;;;5.82;0.77;;;15.70;99.90;;;;;;4920629;29;20493;-92
2022/09/15 07:28:56;;;;;;;9.43;1.10;;;15.80;99.90;;;;;;4936236;23;20036;-85
2022/09/15 07:31:24;;;;;;;7.45;1.00;;;15.90;99.90;;;;;;4929011;29;20055;-85
2022/09/15 07:33:50;;;;;;;10.15;1.13;;;15.90;99.90;;;;;;4913952;29;20048;-84
2022/09/15 07:36:16;;;;;;;6.38;1.17;;;15.90;99.90;;;;;;4913541;29;20074;-84
2022/09/15 07:38:46;;;;;;;9.98;1.23;;;15.90;99.90;;;;;;4912498;29;20063;-83
2022/09/15 07:41:19;;;;;;;6.50;0.80;;;15.90;99.90;;;;;;4913584;29;20055;-83
2022/09/15 07:43:47;;;;;;;4.40;0.88;;;15.90;99.90;;;;;;4913561;29;20052;-85
2022/09/15 07:46:13;;;;;;;10.65;1.45;;;15.90;99.90;;;;;;4913124;29;20043;-85
2022/09/15 07:48:38;;;;;;;8.77;0.85;;;15.80;99.90;;;;;;4929770;29;20052;-84
2022/09/15 07:51:04;;;;;;;12.18;1.48;;;15.80;99.90;;;;;;4914200;29;20507;-85
2022/09/15 07:53:30;;;;;;;9.10;0.90;;;15.80;99.90;;;;;;4912387;29;20051;-84
2022/09/15 07:55:56;;;;;;;7.20;1.05;;;15.70;99.90;;;;;;4914320;29;20124;-84
2022/09/15 07:58:22;;;;;;;7.57;1.38;;;15.60;99.90;;;;;;4928776;29;20510;-84
2022/09/15 08:00:48;;;;;;;8.38;1.05;;;15.50;99.90;;;;;;4928811;29;20055;-84
2022/09/15 08:03:14;;;;;;;5.10;1.10;;;15.50;99.90;;;;;;4929226;29;20051;-84
2022/09/15 08:05:40;;;;;;;9.18;1.45;;;15.60;99.90;;;;;;4929250;29;20051;-85
2022/09/15 08:08:06;;;;;;;6.38;1.02;;;15.60;99.90;;;;;;4912422;29;20046;-84
2022/09/15 08:10:33;;;;;;;9.68;1.45;;;15.70;99.90;;;;;;4913442;29;20400;-84
2022/09/15 08:12:59;;;;;;;12.43;1.52;;;15.70;99.90;;;;;;4929368;29;20052;-85
2022/09/15 08:15:25;;;;;;;9.32;1.00;;;15.80;99.90;;;;;;4912209;29;20050;-85
2022/09/15 08:17:51;;;;;;;12.85;1.85;;;16.00;99.90;;;;;;4913554;29;20215;-84
2022/09/15 08:20:18;;;;;;;12.18;1.33;;;16.00;99.90;;;;;;4912512;29;20143;-84
2022/09/15 08:22:44;;;;;;;10.88;1.27;;;16.10;99.90;;;;;;4912932;29;20046;-84
2022/09/15 08:25:11;;;;;;;11.35;1.52;;;16.20;99.90;;;;;;4912831;29;20106;-84
2022/09/15 08:27:38;;;;;;;8.25;1.30;;;16.20;99.90;;;;;;4912658;29;20043;-84
2022/09/15 08:30:05;;;;;;;12.43;1.33;;;16.30;99.90;;;;;;4928449;29;20162;-84
2022/09/15 08:32:32;;;;;;;10.95;1.60;;;16.40;99.90;;;;;;4928893;29;20440;-84
2022/09/15 08:34:58;;;;;;;11.00;1.25;;;16.60;99.90;;;;;;4912366;29;20433;-84
2022/09/15 08:37:23;;;;;;;9.23;1.20;;;16.60;99.90;;;;;;4912960;29;20047;-84
2022/09/15 08:39:50;;;;;;;9.20;1.20;;;16.80;99.90;;;;;;4911819;29;20058;-85
2022/09/15 08:42:18;;;;;;;9.32;1.30;;;17.00;99.90;;;;;;4912577;29;20039;-85
2022/09/15 08:44:54;;;;;;;16.60;1.88;;;17.20;99.90;;;;;;4909595;29;20127;-84
2022/09/15 08:47:26;;;;;;;10.07;1.20;;;17.30;99.90;;;;;;4894647;29;20405;-84
2022/09/15 08:50:04;;;;;;;14.07;1.50;;;17.40;99.90;;;;;;4909065;29;20493;-84
2022/09/15 08:52:40;;;;;;;12.48;1.58;;;17.30;99.90;;;;;;4894341;29;20052;-85
2022/09/15 08:55:19;;;;;;;8.13;0.90;;;17.20;99.90;;;;;;4908726;29;20044;-85
2022/09/15 08:57:45;;;;;;;7.00;1.40;;;17.20;99.90;;;;;;4894170;29;20406;-85
2022/09/15 09:00:14;;;;;;;10.15;0.98;;;17.30;99.90;;;;;;4925425;29;20500;-84
2022/09/15 09:03:22;;;;;;;10.45;1.23;;;17.60;99.90;;;;;;4893257;29;20052;-86
2022/09/15 09:05:58;;;;;;;9.45;1.25;;;17.80;99.90;;;;;;4910067;29;20040;-86
2022/09/15 09:08:47;;;;;;;9.70;1.60;;;17.70;99.90;;;;;;4893659;29;20052;-85
2022/09/15 09:11:30;;;;;;;10.68;1.67;;;17.50;99.90;;;;;;4909088;29;20059;-86
2022/09/15 09:14:09;;;;;;;8.37;1.63;;;17.20;99.90;;;;;;4893940;29;20051;-86
2022/09/15 09:17:20;;;;;;;11.73;1.20;;;16.80;99.90;;;;;;4894425;29;20087;-86
2022/09/15 09:19:56;;;;;;;7.68;1.10;;;16.50;99.90;;;;;;4894078;29;20084;-86
2022/09/15 09:22:24;;;;;;;11.48;1.23;;;16.30;99.90;;;;;;4909892;29;20056;-87
2022/09/15 09:24:54;;;;;;;8.98;1.30;;;16.10;99.90;;;;;;4892777;29;20054;-86
2022/09/15 09:27:25;;;;;;;8.20;1.30;;;16.00;99.90;;;;;;4910064;29;20087;-86
2022/09/15 09:30:00;;;;;;;9.02;1.50;;;16.00;99.90;;;;;;4893619;29;20513;-86
2022/09/15 09:32:36;;;;;;;6.43;1.23;;;15.90;99.90;;;;;;4892955;29;20054;-86
2022/09/15 09:35:05;;;;;;;6.38;1.08;;;15.90;99.90;;;;;;4893962;29;20109;-85
2022/09/15 09:38:30;;;;;;;;;;;;;;;;;;;;;
2022/09/15 09:42:01;;;;;;;;;;;;;;;;;;;;;
2022/09/15 09:48:43;;;;;;;10.43;1.27;;;15.60;99.90;;;;;;4915517;29;20063;-86
2022/09/15 09:51:47;;;;;;;11.45;1.77;;;15.70;99.90;;;;;;4897353;29;20051;-85
2022/09/15 09:54:16;;;;;;;6.55;1.50;;;15.80;99.90;;;;;;4928271;29;20052;-86
2022/09/15 09:56:43;;;;;;;12.77;1.50;;;15.90;99.90;;;;;;4897960;29;20102;-85
2022/09/15 09:59:37;;;;;;;8.05;1.20;;;15.90;99.90;;;;;;4944720;29;20131;-86
2022/09/15 10:02:09;;;;;;;7.63;1.20;;;16.00;99.90;;;;;;4929761;29;20052;-85
2022/09/15 10:04:35;;;;;;;5.28;0.90;;;15.80;99.90;;;;;;4928949;29;20048;-86
2022/09/15 10:07:01;;;;;;;6.45;0.70;;;16.10;99.90;;;;;;4909642;29;20067;-86
2022/09/15 10:09:30;;;;;;;5.75;0.70;;;16.10;99.90;;;;;;4911803;29;20503;-85
2022/09/15 10:11:59;;;;;;;10.07;1.33;;;16.10;99.90;;;;;;4912904;29;20075;-86
2022/09/15 10:14:30;;;;;;;7.80;1.27;;;16.20;99.90;;;;;;4917788;29;20096;-87
2022/09/15 10:17:01;;;;;;;8.30;1.33;;;16.40;99.90;;;;;;4926383;29;20055;-86
2022/09/15 10:19:31;;;;;;;8.93;1.35;;;16.10;99.90;;;;;;4929613;29;20417;-86
2022/09/15 10:22:00;;;;;;;8.30;1.55;;;16.50;99.90;;;;;;4896677;29;20493;-87
2022/09/15 10:24:26;;;;;;;7.85;1.27;;;16.50;99.90;;;;;;4896711;29;20492;-87
2022/09/15 10:27:06;;;;;;;9.80;1.30;;;16.60;99.90;;;;;;4928216;29;20052;-87
2022/09/15 10:29:38;;;;;;;8.05;1.38;;;16.50;99.90;;;;;;4897386;29;20592;-87
2022/09/15 10:32:28;;;;;;;7.72;0.98;;;16.50;99.90;;;;;;4913187;29;20100;-88
2022/09/15 10:34:59;;;;;;;9.18;1.13;;;16.40;99.90;;;;;;4895801;29;20071;-87
2022/09/15 10:37:28;;;;;;;8.98;1.30;;;16.40;99.90;;;;;;4897067;29;20115;-87
2022/09/15 10:39:57;;;;;;;8.07;1.08;;;16.20;99.90;;;;;;4924608;29;20070;-87
2022/09/15 10:49:35;;;;;;;11.05;1.10;;;15.90;99.90;;;;;;4962383;28;20057;-87
2022/09/15 10:52:27;;;;;;;10.35;1.25;;;15.40;99.90;;;;;;4945475;28;20058;-88
2022/09/15 10:55:09;;;;;;;11.00;1.30;;;15.60;99.90;;;;;;4949909;28;20038;-87
2022/09/15 10:58:07;;;;;;;6.90;1.08;;;15.70;99.90;;;;;;4937434;28;20042;-86
2022/09/15 11:00:49;;;;;;;6.70;1.20;;;15.80;99.90;;;;;;4967829;28;20057;-86
2022/09/15 11:03:38;;;;;;;7.75;1.08;;;16.00;99.90;;;;;;4952487;28;20050;-85
2022/09/15 11:06:25;;;;;;;7.22;1.10;;;16.20;99.90;;;;;;4953383;28;20101;-85
2022/09/15 11:09:03;;;;;;;4.53;0.80;;;16.30;99.90;;;;;;4936269;28;20051;-86
2022/09/15 11:11:43;;;;;;;5.57;0.98;;;16.40;99.90;;;;;;4936856;28;20046;-85
2022/09/15 11:14:25;;;;;;;4.70;0.55;;;16.40;99.90;;;;;;4953359;28;20047;-85
2022/09/15 11:17:01;;;;;;;4.97;0.75;;;16.50;99.90;;;;;;4952263;28;20466;-85
2022/09/15 11:19:26;;;;;;;4.65;0.90;;;16.60;99.90;;;;;;4953069;28;20090;-86
2022/09/15 11:21:59;;;;;;;6.05;0.88;;;16.70;99.90;;;;;;4937258;28;20043;-86
2022/09/15 11:24:36;;;;;;;5.60;0.80;;;16.80;99.90;;;;;;4936150;28;20059;-85
2022/09/15 11:27:10;;;;;;;8.60;0.90;;;16.90;99.90;;;;;;4953303;28;20047;-86
2022/09/15 11:29:59;;;;;;;5.32;0.77;;;17.00;99.90;;;;;;4952917;28;20529;-86
2022/09/15 11:32:35;;;;;;;10.20;0.90;;;17.10;99.90;;;;;;4952122;28;20385;-86
2022/09/15 11:35:17;;;;;;;7.50;0.73;;;17.20;99.90;;;;;;4936176;28;20508;-86
2022/09/15 11:37:49;;;;;;;10.30;1.45;;;17.30;99.90;;;;;;4935430;28;20085;-84
2022/09/15 11:40:22;;;;;;;9.70;0.90;;;17.50;99.90;;;;;;4935508;28;20042;-84
2022/09/15 11:43:01;;;;;;;9.13;0.70;;;17.70;99.90;;;;;;4936678;28;20394;-85
2022/09/15 11:45:34;;;;;;;4.18;0.80;;;17.80;99.90;;;;;;4935411;28;20063;-84
2022/09/15 11:48:10;;;;;;;2.75;0.73;;;17.90;99.90;;;;;;4952289;28;20052;-85
2022/09/15 11:50:40;;;;;;;6.18;0.95;;;17.90;99.90;;;;;;4952157;28;20054;-85
2022/09/15 11:53:27;;;;;;;8.27;1.15;;;18.00;99.90;;;;;;4950996;28;20518;-84
2022/09/15 11:56:08;;;;;;;8.50;1.08;;;17.90;99.90;;;;;;4951970;28;20495;-84
2022/09/15 11:59:00;;;;;;;5.45;0.80;;;17.70;99.90;;;;;;4951431;28;20109;-85
2022/09/15 12:01:34;;;;;;;9.60;0.98;;;17.40;99.90;;;;;;4951931;28;20042;-84
2022/09/15 12:04:07;;;;;;;8.18;0.75;;;17.30;99.90;;;;;;4951531;28;20065;-84
2022/09/15 12:06:42;;;;;;;9.40;0.80;;;17.50;99.90;;;;;;4951069;28;20526;-84
2022/09/15 12:09:14;;;;;;;9.55;0.98;;;17.60;99.90;;;;;;4950581;28;20050;-85
2022/09/15 12:11:45;;;;;;;3.80;0.82;;;17.80;99.90;;;;;;4951700;28;20153;-84
2022/09/15 12:14:18;;;;;;;5.90;0.88;;;17.80;99.90;;;;;;4950477;28;20038;-84
2022/09/15 12:16:44;;;;;;;6.50;0.70;;;17.90;99.90;;;;;;4951912;28;20069;-84
2022/09/15 12:19:16;;;;;;;4.80;0.88;;;17.90;99.90;;;;;;4951610;28;20466;-83
2022/09/15 12:21:54;;;;;;;6.53;0.75;;;17.90;99.90;;;;;;4967437;28;20053;-84
2022/09/15 12:24:29;;;;;;;5.35;0.70;;;18.20;99.90;;;;;;4934793;28;20138;-84
2022/09/15 12:26:59;;;;;;;6.28;0.80;;;18.30;99.90;;;;;;4935047;28;20487;-84
2022/09/15 12:29:25;;;;;;;7.15;0.90;;;18.30;99.90;;;;;;4934862;28;20043;-84
2022/09/15 12:32:18;;;;;;;6.82;0.75;;;18.20;99.90;;;;;;4935637;28;20050;-82
2022/09/15 12:34:54;;;;;;;;;;;18.20;99.90;;;;;;4950854;28;20050;-82
2022/09/15 12:37:20;;;;;;;6.68;0.80;;;18.10;99.90;;;;;;4951395;28;19926;-84
2022/09/15 12:39:46;;;;;;;6.97;0.70;;;18.10;99.90;;;;;;4934157;28;20051;-84
2022/09/15 12:42:13;;;;;;;11.27;0.93;;;18.10;99.90;;;;;;4950756;28;20206;-84
2022/09/15 12:44:55;;;;;;;10.35;0.82;;;18.10;99.90;;;;;;4947416;28;20063;-84
2022/09/15 12:47:31;;;;;;;9.57;0.80;;;18.10;99.90;;;;;;4948252;29;20105;-86
2022/09/15 12:50:06;;;;;;;6.65;1.20;;;18.10;99.90;;;;;;4947835;29;20058;-83
2022/09/15 12:56:31;;;;;;;7.55;1.25;;;18.10;99.90;;;;;;5032570;23;20058;-92
2022/09/15 12:59:02;;;;;;;;;;;18.30;99.90;;;;;;4938570;29;20050;-93
2022/09/15 13:01:31;;;;;;;5.32;0.80;;;18.30;99.90;;;;;;4925847;29;19927;-96
2022/09/15 13:07:14;;;;;;;6.32;0.80;;;18.10;99.90;;;;;;4947587;28;20043;-85
2022/09/15 13:09:56;;;;;;;10.48;1.27;;;17.80;99.90;;;;;;4931030;29;20388;-86
2022/09/15 13:12:29;;;;;;;7.82;1.08;;;17.60;99.90;;;;;;4916598;29;20046;-84
2022/09/15 13:14:58;;;;;;;8.40;1.05;;;17.40;99.90;;;;;;4916014;29;20039;-85
2022/09/15 13:17:26;;;;;;;8.20;0.80;;;17.30;99.90;;;;;;4918891;29;20051;-84
2022/09/15 13:19:56;;;;;;;9.40;1.10;;;17.20;99.90;;;;;;4919274;29;20058;-83
2022/09/15 13:22:30;;;;;;;11.23;1.13;;;17.20;99.90;;;;;;4951599;29;20410;-83
2022/09/15 13:25:03;;;;;;;11.30;1.30;;;17.20;99.90;;;;;;4918316;29;20486;-83
2022/09/15 13:27:39;;;;;;;9.10;1.15;;;17.30;99.90;;;;;;4919522;29;20132;-83